Time;durP1;ratioP1;P1;durP2;ratioP2;P2;SDS_P1;SDS_P2;PMS_P1;PMS_P2;Temp;Humidity;BMP_temperature;BMP_pressure;BME280_temperature;BME280_humidity;BME280_pressure;Samples;Min_cycle;Max_cycle;Signal;HPM_P1;HPM_P2
2021/11/09 00:00:28;;;;;;;0.93;0.60;;;6.10;92.10;;;;;;5038042;28;20123;-79
2021/11/09 00:03:04;;;;;;;0.90;0.60;;;6.10;92.10;;;;;;5037194;28;20045;-79
2021/11/09 00:05:31;;;;;;;0.63;0.52;;;6.20;92.20;;;;;;5039000;28;20528;-80
2021/11/09 00:08:01;;;;;;;0.60;0.50;;;6.10;92.10;;;;;;5038115;28;20628;-80
2021/11/09 00:10:28;;;;;;;0.88;0.40;;;6.10;92.10;;;;;;5054876;28;20044;-78
2021/11/09 00:12:59;;;;;;;1.38;0.55;;;6.10;92.10;;;;;;5053804;28;20434;-79
2021/11/09 00:15:25;;;;;;;1.23;0.70;;;6.10;92.10;;;;;;5067625;28;20040;-80
2021/11/09 00:17:54;;;;;;;1.30;0.40;;;6.10;92.10;;;;;;5076202;28;20488;-80
2021/11/09 00:20:22;;;;;;;0.57;0.40;;;6.10;92.10;;;;;;5094924;28;20027;-79
2021/11/09 00:22:49;;;;;;;1.73;0.40;;;6.00;92.10;;;;;;5113206;28;20100;-80
2021/11/09 00:25:17;;;;;;;0.50;0.45;;;6.00;92.10;;;;;;5113089;28;20137;-80
2021/11/09 00:27:43;;;;;;;0.70;0.60;;;6.00;92.10;;;;;;5113035;28;20505;-80
2021/11/09 00:30:11;;;;;;;0.90;0.60;;;6.00;92.10;;;;;;5113051;28;20069;-80
2021/11/09 00:32:43;;;;;;;0.88;0.73;;;6.00;92.10;;;;;;5093667;28;20055;-80
2021/11/09 00:35:11;;;;;;;1.27;0.93;;;5.90;92.10;;;;;;5078855;28;20400;-80
2021/11/09 00:37:37;;;;;;;0.77;0.50;;;5.90;92.10;;;;;;5095125;28;20040;-80
2021/11/09 00:40:06;;;;;;;0.85;0.50;;;5.90;92.10;;;;;;5078215;28;20107;-80
2021/11/09 00:42:32;;;;;;;1.05;0.80;;;5.90;92.10;;;;;;5113485;28;20039;-80
2021/11/09 00:44:58;;;;;;;0.52;0.50;;;5.80;92.10;;;;;;5094448;28;20044;-80
2021/11/09 00:47:25;;;;;;;2.22;0.52;;;5.80;92.10;;;;;;5113364;28;20453;-79
2021/11/09 00:49:51;;;;;;;1.73;0.55;;;5.80;92.20;;;;;;5059009;28;20401;-80
2021/11/09 00:52:17;;;;;;;0.50;0.50;;;5.70;92.20;;;;;;5112869;28;20036;-79
2021/11/09 00:54:43;;;;;;;0.98;0.70;;;5.60;92.20;;;;;;5061259;28;20036;-80
2021/11/09 00:57:08;;;;;;;0.55;0.50;;;5.60;92.20;;;;;;5094913;28;20109;-80
2021/11/09 00:59:34;;;;;;;1.02;0.63;;;5.60;92.20;;;;;;5095200;28;20127;-80
2021/11/09 01:02:01;;;;;;;0.68;0.60;;;5.60;92.20;;;;;;5080660;28;20044;-80
2021/11/09 01:04:27;;;;;;;0.70;0.45;;;5.60;92.20;;;;;;5116514;28;20046;-80
2021/11/09 01:06:54;;;;;;;1.27;0.60;;;5.60;92.20;;;;;;5098646;28;20044;-79
2021/11/09 01:09:22;;;;;;;1.15;0.65;;;5.50;92.20;;;;;;5098452;28;20048;-79
2021/11/09 01:11:49;;;;;;;0.90;0.55;;;5.50;92.20;;;;;;5081405;28;20130;-80
2021/11/09 01:14:15;;;;;;;0.52;0.38;;;5.60;92.30;;;;;;5097571;28;20085;-80
2021/11/09 01:16:42;;;;;;;0.30;0.30;;;5.40;92.20;;;;;;5097774;28;20059;-80
2021/11/09 01:19:09;;;;;;;0.50;0.50;;;5.40;92.20;;;;;;5116381;28;20035;-80
2021/11/09 01:21:36;;;;;;;0.60;0.50;;;5.40;92.30;;;;;;5097854;28;20093;-80
2021/11/09 01:24:03;;;;;;;0.70;0.50;;;5.30;92.30;;;;;;5097520;28;20051;-80
2021/11/09 01:26:30;;;;;;;0.88;0.57;;;5.30;92.30;;;;;;5081489;28;20043;-80
2021/11/09 01:28:58;;;;;;;0.63;0.40;;;5.30;92.30;;;;;;5081667;28;20035;-80
2021/11/09 01:31:25;;;;;;;0.47;0.47;;;5.30;92.30;;;;;;5098296;28;20050;-80
2021/11/09 01:33:52;;;;;;;0.47;0.45;;;5.30;92.30;;;;;;5097702;28;20039;-80
2021/11/09 01:36:19;;;;;;;0.73;0.65;;;5.20;92.30;;;;;;5097341;28;20028;-80
2021/11/09 01:38:45;;;;;;;0.70;0.70;;;5.20;92.30;;;;;;5096779;28;20486;-80
2021/11/09 01:41:11;;;;;;;1.25;0.65;;;5.20;92.30;;;;;;5098716;28;20138;-80
2021/11/09 01:43:38;;;;;;;0.63;0.45;;;5.20;92.60;;;;;;5116389;28;20078;-80
2021/11/09 01:46:06;;;;;;;1.02;0.60;;;5.20;92.30;;;;;;5098159;28;20384;-80
2021/11/09 01:48:32;;;;;;;1.77;0.47;;;5.10;92.30;;;;;;5097486;28;20050;-80
2021/11/09 01:51:01;;;;;;;1.65;0.73;;;5.20;92.30;;;;;;5080503;28;20036;-79
2021/11/09 01:53:28;;;;;;;0.98;0.50;;;5.10;92.30;;;;;;5063794;28;20040;-80
2021/11/09 01:55:57;;;;;;;0.60;0.57;;;5.00;92.30;;;;;;5097241;28;20528;-80
2021/11/09 01:58:24;;;;;;;1.80;0.73;;;5.00;92.30;;;;;;5097666;28;20036;-80
2021/11/09 02:00:54;;;;;;;0.63;0.50;;;5.00;92.30;;;;;;5115802;28;20603;-80
2021/11/09 02:03:21;;;;;;;1.33;0.52;;;5.00;92.30;;;;;;5079275;28;20048;-80
2021/11/09 02:05:49;;;;;;;0.80;0.60;;;4.90;92.30;;;;;;5078854;28;20405;-80
2021/11/09 02:08:15;;;;;;;0.80;0.63;;;4.90;92.30;;;;;;5080900;28;20100;-80
2021/11/09 02:10:44;;;;;;;0.95;0.60;;;5.00;92.30;;;;;;5097575;28;20059;-80
2021/11/09 02:13:10;;;;;;;0.63;0.55;;;4.90;92.30;;;;;;5096164;28;20378;-80
2021/11/09 02:15:37;;;;;;;1.70;0.50;;;4.90;92.30;;;;;;5115844;28;20389;-80
2021/11/09 02:18:06;;;;;;;1.38;0.63;;;4.80;92.30;;;;;;5115853;28;20035;-80
2021/11/09 02:20:32;;;;;;;0.50;0.50;;;4.90;92.30;;;;;;5115173;28;20114;-79
2021/11/09 02:22:58;;;;;;;1.85;0.73;;;4.90;92.60;;;;;;5096828;28;20444;-80
2021/11/09 02:25:25;;;;;;;1.52;0.63;;;4.80;92.30;;;;;;5115269;28;20439;-80
2021/11/09 02:27:52;;;;;;;0.55;0.50;;;4.80;92.30;;;;;;5097527;28;20039;-80
2021/11/09 02:30:23;;;;;;;1.08;0.52;;;4.80;92.30;;;;;;5080115;28;20047;-80
2021/11/09 02:32:50;;;;;;;0.60;0.60;;;4.80;92.30;;;;;;5096673;28;20047;-80
2021/11/09 02:35:16;;;;;;;1.27;0.50;;;4.80;92.30;;;;;;5096988;28;20083;-80
2021/11/09 02:37:43;;;;;;;0.80;0.50;;;4.70;92.30;;;;;;5096558;28;20515;-80
2021/11/09 02:40:10;;;;;;;1.70;0.60;;;4.70;92.30;;;;;;5115243;28;20126;-80
2021/11/09 02:42:40;;;;;;;0.52;0.50;;;4.70;92.30;;;;;;5079668;28;20043;-80
2021/11/09 02:45:17;;;;;;;0.85;0.55;;;4.70;92.30;;;;;;5078290;28;20123;-80
2021/11/09 02:47:48;;;;;;;1.00;0.65;;;4.70;92.30;;;;;;5081065;28;20477;-80
2021/11/09 02:50:15;;;;;;;0.90;0.40;;;4.70;92.30;;;;;;5080280;28;20058;-80
2021/11/09 02:55:31;;;;;;;0.80;0.50;;;4.70;92.20;;;;;;5114809;28;20493;-80
2021/11/09 02:58:09;;;;;;;0.82;0.60;;;4.70;92.20;;;;;;5080297;28;20063;-80
2021/11/09 03:00:44;;;;;;;1.25;0.50;;;4.70;92.20;;;;;;5081255;28;20035;-80
2021/11/09 03:03:17;;;;;;;0.80;0.70;;;4.70;92.20;;;;;;5096486;28;20043;-80
2021/11/09 03:05:49;;;;;;;2.88;0.60;;;4.70;92.20;;;;;;5097341;28;20401;-80
2021/11/09 03:08:26;;;;;;;;;;;4.70;92.20;;;;;;5079790;28;20098;-80
2021/11/09 03:10:53;;;;;;;0.40;0.40;;;4.70;92.20;;;;;;5096565;28;19912;-80
2021/11/09 03:13:21;;;;;;;0.90;0.52;;;4.70;92.10;;;;;;5114388;28;20048;-80
2021/11/09 03:15:48;;;;;;;0.80;0.50;;;4.70;92.20;;;;;;5079434;28;20038;-80
2021/11/09 03:18:16;;;;;;;0.60;0.60;;;4.70;92.20;;;;;;5062483;28;20104;-80
2021/11/09 03:20:50;;;;;;;1.00;0.60;;;4.70;92.20;;;;;;5078098;28;20051;-80
2021/11/09 03:44:44;;;;;;;1.23;0.57;;;4.70;92.20;;;;;;5113810;28;20134;-80
2021/11/09 03:47:14;;;;;;;0.77;0.45;;;4.70;92.10;;;;;;5113715;28;20044;-80
2021/11/09 03:49:41;;;;;;;0.70;0.60;;;4.70;92.10;;;;;;5079298;28;20042;-80
2021/11/09 03:52:14;;;;;;;0.80;0.63;;;4.70;92.20;;;;;;5095081;28;20057;-80
2021/11/09 03:54:40;;;;;;;0.40;0.40;;;4.70;92.20;;;;;;5096163;28;20039;-80
2021/11/09 03:57:13;;;;;;;0.93;0.50;;;4.70;92.20;;;;;;5114158;28;20059;-80
2021/11/09 04:02:32;;;;;;;1.70;0.90;;;4.60;92.20;;;;;;5113128;28;20036;-80
2021/11/09 04:05:03;;;;;;;1.15;0.60;;;4.60;92.20;;;;;;5097376;28;20079;-80
2021/11/09 04:07:38;;;;;;;1.70;0.68;;;4.60;92.20;;;;;;5061348;28;20068;-80
2021/11/09 04:10:15;;;;;;;0.65;0.40;;;4.60;92.20;;;;;;5079340;28;20036;-79
2021/11/09 04:18:18;;;;;;;1.05;0.65;;;4.60;92.20;;;;;;5098200;28;20058;-79
2021/11/09 04:21:38;;;;;;;0.80;0.70;;;4.60;92.30;;;;;;5113284;28;20074;-80
2021/11/09 04:26:46;;;;;;;0.68;0.43;;;4.50;92.20;;;;;;5113061;28;20053;-80
2021/11/09 04:29:25;;;;;;;1.23;0.68;;;4.40;92.20;;;;;;5084221;28;20090;-79
2021/11/09 04:31:57;;;;;;;0.88;0.60;;;4.40;92.30;;;;;;5097602;28;20040;-80
2021/11/09 04:40:20;;;;;;;2.95;0.90;;;4.40;92.30;;;;;;5113005;28;20143;-80
2021/11/09 04:50:59;;;;;;;1.52;0.80;;;4.30;92.20;;;;;;5113102;28;20043;-79
2021/11/09 05:09:30;;;;;;;2.65;0.73;;;4.10;92.30;;;;;;5114397;28;20378;-80
2021/11/09 05:11:56;;;;;;;1.67;0.57;;;4.20;92.30;;;;;;5095573;28;20036;-80
2021/11/09 05:14:22;;;;;;;1.65;0.90;;;4.20;92.30;;;;;;5112761;28;20040;-80
2021/11/09 05:16:48;;;;;;;0.98;0.77;;;4.20;92.30;;;;;;5113114;28;20534;-80
2021/11/09 05:19:14;;;;;;;1.15;0.70;;;4.20;92.60;;;;;;5113138;28;20027;-80
2021/11/09 05:21:41;;;;;;;1.48;1.00;;;4.20;92.40;;;;;;5112973;28;20042;-80
2021/11/09 05:24:07;;;;;;;1.40;0.68;;;4.10;92.30;;;;;;5095419;28;20039;-80
2021/11/09 05:26:34;;;;;;;1.70;0.90;;;4.20;92.40;;;;;;5112978;28;20101;-80
2021/11/09 05:29:00;;;;;;;0.65;0.60;;;4.20;92.40;;;;;;5113157;28;20126;-79
2021/11/09 05:31:26;;;;;;;0.90;0.60;;;4.20;92.40;;;;;;5095083;28;20436;-80
2021/11/09 05:33:55;;;;;;;0.70;0.63;;;4.20;92.40;;;;;;5094038;28;20051;-80
2021/11/09 05:36:21;;;;;;;0.85;0.60;;;4.20;92.30;;;;;;5077382;28;20031;-80
2021/11/09 05:38:56;;;;;;;0.63;0.60;;;4.20;92.30;;;;;;5077324;28;20093;-80
2021/11/09 05:41:23;;;;;;;1.50;0.60;;;4.20;92.30;;;;;;5095969;28;20036;-80
2021/11/09 05:43:49;;;;;;;1.05;0.82;;;4.30;92.40;;;;;;5061043;28;20084;-80
2021/11/09 05:46:15;;;;;;;0.93;0.70;;;4.30;92.40;;;;;;5094366;28;20043;-80
2021/11/09 05:48:41;;;;;;;2.20;1.13;;;4.30;92.30;;;;;;5116871;28;20093;-80
2021/11/09 05:51:09;;;;;;;1.88;0.80;;;4.30;92.30;;;;;;5098036;28;20040;-80
2021/11/09 05:53:36;;;;;;;0.90;0.65;;;4.40;92.50;;;;;;5115385;28;20047;-80
2021/11/09 05:56:04;;;;;;;1.80;1.02;;;4.50;92.20;;;;;;5115792;28;20128;-80
2021/11/09 05:58:30;;;;;;;1.90;0.65;;;4.40;92.10;;;;;;5115719;28;20039;-79
2021/11/09 06:00:55;;;;;;;1.40;0.90;;;4.40;92.10;;;;;;5115718;28;20042;-80
2021/11/09 06:03:24;;;;;;;1.13;0.65;;;4.40;92.10;;;;;;5097196;28;20093;-79
2021/11/09 06:05:52;;;;;;;0.93;0.70;;;4.40;92.10;;;;;;5096865;28;20065;-80
2021/11/09 06:08:18;;;;;;;2.08;0.90;;;4.40;92.10;;;;;;5097772;28;20194;-80
2021/11/09 06:10:44;;;;;;;0.80;0.80;;;4.40;92.20;;;;;;5097110;28;20039;-79
2021/11/09 06:13:10;;;;;;;0.85;0.70;;;4.30;92.20;;;;;;5096945;28;20126;-79
2021/11/09 06:15:36;;;;;;;1.27;0.80;;;4.30;92.20;;;;;;5079991;28;20075;-79
2021/11/09 06:18:02;;;;;;;2.28;1.13;;;4.30;92.20;;;;;;5097669;28;20043;-77
2021/11/09 06:20:28;;;;;;;1.83;0.90;;;4.30;92.20;;;;;;5115502;28;20524;-77
2021/11/09 06:22:54;;;;;;;1.20;0.70;;;4.30;92.20;;;;;;5114866;28;20040;-77
2021/11/09 06:25:24;;;;;;;2.10;1.17;;;4.30;92.20;;;;;;5115238;28;20485;-77
2021/11/09 06:27:51;;;;;;;0.93;0.73;;;4.30;92.20;;;;;;5080617;28;20051;-77
2021/11/09 06:30:17;;;;;;;1.67;0.73;;;4.30;92.20;;;;;;5115326;28;20044;-77
2021/11/09 06:32:42;;;;;;;2.25;1.00;;;4.30;92.30;;;;;;5115492;28;20153;-77
2021/11/09 06:35:09;;;;;;;1.23;0.90;;;4.30;92.30;;;;;;5097429;28;20035;-77
2021/11/09 06:37:35;;;;;;;1.38;0.85;;;4.30;92.30;;;;;;5096665;28;20043;-77
2021/11/09 06:40:04;;;;;;;1.73;0.75;;;4.30;92.30;;;;;;5096579;28;20059;-77
2021/11/09 06:42:30;;;;;;;1.42;0.70;;;4.30;92.30;;;;;;5079582;28;20134;-77
2021/11/09 06:44:56;;;;;;;0.82;0.63;;;4.20;92.20;;;;;;5096765;28;20043;-77
2021/11/09 06:47:22;;;;;;;2.25;1.10;;;4.30;92.30;;;;;;5078897;28;20032;-78
2021/11/09 06:49:48;;;;;;;1.40;0.95;;;4.30;92.30;;;;;;5095069;28;20101;-77
2021/11/09 06:52:14;;;;;;;0.80;0.65;;;4.20;92.30;;;;;;5096306;28;20468;-77
2021/11/09 06:54:41;;;;;;;2.95;1.15;;;4.20;92.30;;;;;;5079693;28;20105;-78
2021/11/09 06:57:06;;;;;;;1.50;0.73;;;4.20;92.30;;;;;;5114874;28;20118;-77
2021/11/09 06:59:32;;;;;;;2.05;0.68;;;4.20;92.30;;;;;;5094457;28;20127;-77
2021/11/09 07:01:58;;;;;;;1.27;0.80;;;4.20;92.40;;;;;;5114940;28;20032;-77
2021/11/09 07:04:24;;;;;;;1.00;0.60;;;4.20;92.40;;;;;;5096408;28;20151;-77
2021/11/09 07:06:50;;;;;;;1.58;0.85;;;4.20;92.30;;;;;;5096228;28;20039;-78
2021/11/09 07:09:16;;;;;;;1.48;0.80;;;4.20;92.30;;;;;;5077440;28;20063;-77
2021/11/09 07:11:42;;;;;;;1.85;0.85;;;4.30;92.40;;;;;;5114185;28;20051;-77
2021/11/09 07:14:09;;;;;;;0.80;0.68;;;4.30;92.40;;;;;;5114504;28;20092;-80
2021/11/09 07:16:36;;;;;;;1.77;0.80;;;4.40;92.30;;;;;;5095977;28;20036;-79
2021/11/09 07:19:03;;;;;;;2.60;0.73;;;4.40;92.30;;;;;;5080369;28;20469;-80
2021/11/09 07:21:30;;;;;;;1.52;1.05;;;4.50;92.30;;;;;;5114094;28;20085;-80
2021/11/09 07:23:57;;;;;;;2.00;1.20;;;4.50;92.20;;;;;;5096606;28;20125;-81
2021/11/09 07:26:24;;;;;;;1.65;0.95;;;4.70;92.20;;;;;;5098799;28;20045;-80
2021/11/09 07:28:49;;;;;;;2.05;0.90;;;4.80;92.10;;;;;;5094553;28;20046;-80
2021/11/09 07:31:17;;;;;;;2.03;1.17;;;4.70;92.00;;;;;;5095670;28;20075;-80
2021/11/09 07:33:44;;;;;;;1.60;0.88;;;4.80;91.90;;;;;;5096074;28;20059;-80
2021/11/09 07:36:10;;;;;;;0.80;0.80;;;4.80;91.90;;;;;;5096929;28;20400;-80
2021/11/09 07:38:36;;;;;;;1.23;0.70;;;4.80;91.90;;;;;;5114443;28;20043;-81
2021/11/09 07:41:02;;;;;;;1.05;0.73;;;4.80;91.90;;;;;;5078741;28;20038;-80
2021/11/09 07:43:28;;;;;;;2.10;0.85;;;4.90;91.90;;;;;;5113986;28;20126;-81
2021/11/09 07:45:54;;;;;;;2.28;0.85;;;4.90;91.90;;;;;;5078521;28;20556;-81
2021/11/09 07:48:20;;;;;;;1.60;0.82;;;5.00;92.00;;;;;;5114465;28;20127;-81
2021/11/09 07:50:45;;;;;;;0.93;0.73;;;5.00;92.00;;;;;;5113958;28;20043;-81
2021/11/09 07:53:15;;;;;;;1.20;0.70;;;4.90;92.00;;;;;;5095790;28;20044;-81
2021/11/09 07:56:18;;;;;;;1.80;0.80;;;4.90;92.00;;;;;;5115792;28;20047;-80
2021/11/09 08:02:00;;;;;;;2.88;1.20;;;5.10;92.00;;;;;;4972127;28;20042;-84
2021/11/09 08:04:32;;;;;;;3.92;1.50;;;5.30;91.90;;;;;;4964964;28;20051;-79
2021/11/09 08:07:02;;;;;;;3.78;1.88;;;5.40;91.80;;;;;;5051370;28;20045;-81
2021/11/09 08:09:28;;;;;;;4.13;1.60;;;5.50;91.70;;;;;;5018626;28;20048;-80
2021/11/09 08:11:55;;;;;;;2.75;1.33;;;5.60;91.70;;;;;;5051914;28;20433;-77
2021/11/09 08:14:21;;;;;;;4.60;1.70;;;5.60;91.60;;;;;;5038333;28;20063;-79
2021/11/09 08:16:51;;;;;;;3.55;1.50;;;5.70;91.60;;;;;;5042292;28;20037;-81
2021/11/09 08:19:18;;;;;;;6.93;2.00;;;5.70;91.50;;;;;;5043827;28;20041;-78
2021/11/09 08:21:46;;;;;;;4.53;1.77;;;5.80;91.50;;;;;;5037984;28;20095;-80
2021/11/09 08:24:32;;;;;;;3.88;1.60;;;5.90;91.50;;;;;;5040483;28;20045;-81
2021/11/09 08:27:04;;;;;;;2.95;1.50;;;5.90;91.40;;;;;;4949531;29;20102;-81
2021/11/09 08:29:30;;;;;;;2.67;1.30;;;5.90;91.40;;;;;;4962094;29;20055;-80
2021/11/09 08:31:58;;;;;;;2.53;1.50;;;6.00;91.40;;;;;;4960082;28;20073;-79
2021/11/09 08:34:31;;;;;;;2.72;1.40;;;6.00;91.40;;;;;;4997507;28;20075;-83
2021/11/09 08:36:59;;;;;;;1.92;1.20;;;6.00;91.50;;;;;;4959015;29;20055;-83
2021/11/09 08:39:33;;;;;;;2.47;1.30;;;6.20;91.50;;;;;;4905541;29;20107;-83
2021/11/09 08:42:12;;;;;;;4.22;1.48;;;6.10;91.50;;;;;;4901925;29;20051;-76
2021/11/09 08:44:46;;;;;;;1.98;1.17;;;6.10;91.40;;;;;;4920241;29;20078;-79
2021/11/09 08:47:17;;;;;;;4.40;1.50;;;6.20;91.40;;;;;;4912931;29;20059;-78
2021/11/09 08:49:44;;;;;;;3.03;1.40;;;6.30;91.40;;;;;;4914505;29;20072;-78
2021/11/09 08:52:12;;;;;;;5.07;1.27;;;6.40;91.40;;;;;;4976019;28;20046;-77
2021/11/09 08:54:48;;;;;;;2.50;1.40;;;6.40;91.40;;;;;;4976953;28;20050;-78
2021/11/09 09:05:15;;;;;;;2.45;1.10;;;6.80;91.20;;;;;;5071092;28;20057;-77
2021/11/09 09:07:42;;;;;;;2.60;1.40;;;6.80;91.20;;;;;;5051245;28;20371;-78
2021/11/09 09:10:11;;;;;;;2.92;1.33;;;6.80;91.20;;;;;;5051662;28;20055;-79
2021/11/09 09:12:40;;;;;;;2.70;1.42;;;6.80;91.20;;;;;;5128342;28;20057;-79
2021/11/09 09:15:08;;;;;;;5.65;2.00;;;6.90;91.20;;;;;;5086792;28;20053;-80
2021/11/09 09:17:47;;;;;;;3.33;1.60;;;7.00;91.10;;;;;;5100591;28;20044;-85
2021/11/09 09:23:02;;;;;;;3.42;1.40;;;7.10;91.10;;;;;;4999172;28;20113;-78
2021/11/09 09:25:49;;;;;;;4.35;1.60;;;7.20;91.00;;;;;;4966313;28;20046;-76
2021/11/09 09:31:38;;;;;;;3.35;1.50;;;7.30;91.00;;;;;;5018881;28;20121;-79
2021/11/09 09:53:10;;;;;;;4.13;1.70;;;7.80;90.90;;;;;;5099384;28;20060;-80
2021/11/09 09:55:39;;;;;;;4.88;1.92;;;7.90;90.80;;;;;;5064793;28;20720;-80
2021/11/09 09:58:13;;;;;;;6.22;2.13;;;7.90;90.70;;;;;;5085157;28;20101;-84
2021/11/09 10:00:42;;;;;;;6.35;2.50;;;8.00;90.70;;;;;;5102410;28;20040;-79
2021/11/09 10:03:11;;;;;;;6.70;2.35;;;8.10;90.70;;;;;;5121487;28;20059;-80
2021/11/09 10:06:53;;;;;;;5.72;2.40;;;8.20;90.60;;;;;;5055924;28;20510;-81
2021/11/09 10:09:41;;;;;;;2.75;1.67;;;8.30;90.60;;;;;;5016434;28;20526;-79
2021/11/09 10:12:22;;;;;;;5.28;1.98;;;8.40;90.50;;;;;;4997944;28;20050;-80
2021/11/09 10:14:56;;;;;;;3.90;1.58;;;8.40;90.50;;;;;;5011067;28;20046;-79
2021/11/09 10:20:44;;;;;;;4.47;2.00;;;8.50;90.40;;;;;;5002413;28;20519;-80
2021/11/09 10:23:15;;;;;;;3.83;1.48;;;8.70;90.40;;;;;;4982844;28;20056;-79
2021/11/09 10:25:42;;;;;;;4.88;2.08;;;8.70;90.30;;;;;;5000907;28;20602;-80
2021/11/09 10:28:14;;;;;;;4.53;1.95;;;8.70;90.30;;;;;;5003185;28;20054;-82
2021/11/09 10:30:44;;;;;;;3.55;1.73;;;8.80;90.30;;;;;;4964430;28;20038;-80
2021/11/09 10:33:13;;;;;;;4.88;1.92;;;8.70;90.20;;;;;;4994602;28;20072;-80
2021/11/09 10:35:38;;;;;;;3.97;1.92;;;8.90;90.30;;;;;;4975058;28;20034;-78
2021/11/09 10:38:05;;;;;;;5.60;1.83;;;8.80;90.30;;;;;;5062475;28;20431;-79
2021/11/09 10:40:50;;;;;;;4.75;2.10;;;8.90;90.30;;;;;;5078147;28;20046;-82
2021/11/09 10:43:21;;;;;;;7.50;2.35;;;9.00;90.30;;;;;;5109882;28;20036;-80
2021/11/09 10:45:51;;;;;;;5.15;2.13;;;9.00;90.20;;;;;;5105333;28;20047;-84
2021/11/09 10:48:21;;;;;;;3.55;2.00;;;9.10;90.10;;;;;;5124316;28;20039;-80
2021/11/09 10:50:54;;;;;;;3.97;2.10;;;9.20;90.10;;;;;;5092049;28;20107;-80
2021/11/09 10:53:35;;;;;;;4.40;1.95;;;9.20;90.10;;;;;;5084077;28;20043;-78
2021/11/09 11:04:10;;;;;;;4.18;1.80;;;9.40;89.90;;;;;;5134497;28;20034;-81
2021/11/09 11:10:00;;;;;;;6.10;2.30;;;9.60;89.90;;;;;;5042362;28;20159;-82
2021/11/09 11:12:27;;;;;;;4.72;2.00;;;9.60;89.70;;;;;;5012342;28;20129;-83
2021/11/09 11:15:08;;;;;;;3.95;2.20;;;9.60;89.60;;;;;;4992953;28;20081;-84
2021/11/09 11:17:45;;;;;;;3.70;2.00;;;9.60;89.60;;;;;;4968486;28;20023;-84
2021/11/09 11:20:11;;;;;;;2.80;1.70;;;9.70;89.50;;;;;;4922710;29;20048;-79
2021/11/09 11:22:38;;;;;;;5.18;1.92;;;9.80;89.40;;;;;;4923061;29;20067;-79
2021/11/09 11:25:05;;;;;;;3.55;1.88;;;9.80;89.30;;;;;;4897963;29;20056;-79
2021/11/09 11:27:32;;;;;;;4.57;2.05;;;9.90;89.30;;;;;;4921500;29;20036;-79
2021/11/09 11:32:47;;;;;;;5.65;2.30;;;10.00;89.10;;;;;;4791791;29;20087;-79
2021/11/09 11:35:14;;;;;;;6.45;2.10;;;10.10;89.10;;;;;;4825106;29;20035;-80
2021/11/09 11:37:44;;;;;;;4.30;1.85;;;10.10;88.90;;;;;;4823036;29;20612;-81
2021/11/09 11:40:10;;;;;;;4.20;2.15;;;10.20;88.90;;;;;;4842759;29;20050;-79
2021/11/09 11:42:39;;;;;;;4.75;2.05;;;10.30;88.80;;;;;;4844560;29;20095;-79
2021/11/09 11:45:06;;;;;;;4.38;2.08;;;10.40;88.70;;;;;;4845135;29;20515;-80
2021/11/09 11:47:31;;;;;;;4.07;1.73;;;10.40;88.50;;;;;;4849941;29;20628;-78
2021/11/09 11:50:05;;;;;;;5.00;1.98;;;10.50;88.50;;;;;;4867138;29;20048;-77
2021/11/09 11:53:02;;;;;;;4.07;1.95;;;10.60;88.30;;;;;;4943426;28;20046;-85
2021/11/09 11:55:30;;;;;;;3.13;1.50;;;10.70;88.10;;;;;;4880498;29;20518;-78
2021/11/09 11:58:10;;;;;;;4.47;2.00;;;10.80;87.90;;;;;;4895223;29;20554;-77
2021/11/09 12:00:44;;;;;;;2.88;1.60;;;10.80;87.80;;;;;;4899520;29;20040;-80
2021/11/09 12:03:32;;;;;;;3.83;1.75;;;10.90;87.70;;;;;;4945129;28;20148;-77
2021/11/09 12:06:00;;;;;;;4.22;1.70;;;11.00;87.70;;;;;;5015008;28;20053;-78
2021/11/09 12:08:37;;;;;;;3.78;1.88;;;11.00;87.50;;;;;;5030733;28;20056;-76
2021/11/09 12:11:40;;;;;;;2.75;1.40;;;11.10;87.40;;;;;;5072606;28;20040;-82
2021/11/09 12:14:18;;;;;;;1.80;1.38;;;11.20;87.40;;;;;;5027740;28;20403;-80
2021/11/09 12:16:52;;;;;;;3.88;1.73;;;11.30;87.30;;;;;;4986324;28;20047;-79
2021/11/09 12:19:47;;;;;;;4.25;1.48;;;11.40;87.10;;;;;;4939642;28;20047;-80
2021/11/09 12:22:22;;;;;;;4.22;1.80;;;11.50;87.00;;;;;;4886401;29;20068;-80
2021/11/09 12:24:57;;;;;;;5.28;2.08;;;11.40;86.80;;;;;;4889937;29;20072;-80
2021/11/09 12:27:32;;;;;;;3.13;1.50;;;11.40;86.80;;;;;;4870283;29;20037;-80
2021/11/09 12:30:45;;;;;;;3.63;1.60;;;11.50;86.80;;;;;;4864457;29;20040;-84
2021/11/09 12:33:36;;;;;;;3.05;1.63;;;11.50;86.80;;;;;;4846980;29;20943;-87
2021/11/09 12:36:19;;;;;;;5.53;1.58;;;11.60;86.70;;;;;;4850135;29;20033;-82
2021/11/09 12:38:53;;;;;;;2.28;1.23;;;11.60;86.70;;;;;;4833440;29;20042;-80
2021/11/09 12:41:22;;;;;;;2.55;1.30;;;11.70;86.60;;;;;;4834158;29;20084;-80
2021/11/09 12:43:51;;;;;;;2.95;1.60;;;11.80;86.50;;;;;;4801438;29;20051;-77
2021/11/09 12:46:29;;;;;;;2.90;1.35;;;11.80;86.30;;;;;;4830928;29;20054;-78
2021/11/09 12:49:02;;;;;;;3.17;1.30;;;12.00;86.30;;;;;;4926594;29;20141;-77
2021/11/09 12:51:35;;;;;;;2.22;1.45;;;11.90;86.20;;;;;;5000867;28;20046;-79
2021/11/09 12:54:14;;;;;;;2.20;1.20;;;11.90;86.20;;;;;;4995030;28;20066;-78
2021/11/09 12:56:43;;;;;;;2.58;1.60;;;11.90;86.30;;;;;;5011706;28;20046;-78
2021/11/09 12:59:34;;;;;;;5.50;1.40;;;12.00;86.20;;;;;;5005850;28;20057;-81
2021/11/09 13:02:07;;;;;;;5.53;1.90;;;12.00;86.00;;;;;;4988485;28;20046;-76
2021/11/09 13:04:49;;;;;;;4.32;1.65;;;12.00;86.00;;;;;;5042750;28;20079;-78
2021/11/09 13:10:06;;;;;;;4.28;1.73;;;12.00;86.20;;;;;;5059728;28;19913;-81
2021/11/09 13:12:35;;;;;;;3.47;1.60;;;12.00;86.00;;;;;;5039587;28;20061;-78
2021/11/09 13:15:11;;;;;;;3.50;1.40;;;12.00;86.00;;;;;;5083263;28;20489;-77
2021/11/09 13:17:42;;;;;;;2.92;1.63;;;12.00;86.00;;;;;;5112930;28;20560;-79
2021/11/09 13:20:21;;;;;;;3.40;1.60;;;12.10;85.90;;;;;;5081743;28;20035;-80
2021/11/09 13:23:02;;;;;;;4.22;1.75;;;12.00;86.00;;;;;;5102271;28;20105;-78
2021/11/09 13:25:40;;;;;;;3.10;1.80;;;12.10;86.00;;;;;;5077374;28;20044;-79
2021/11/09 13:28:19;;;;;;;2.38;1.35;;;12.00;85.90;;;;;;5093923;28;20099;-79
2021/11/09 13:30:51;;;;;;;3.35;2.00;;;12.00;85.90;;;;;;5094441;28;20042;-78
2021/11/09 13:33:19;;;;;;;3.50;1.55;;;12.00;85.90;;;;;;5077540;28;20047;-79
2021/11/09 13:35:46;;;;;;;2.90;1.55;;;11.90;85.80;;;;;;5093661;28;20035;-78
2021/11/09 13:38:18;;;;;;;4.38;1.52;;;12.00;85.80;;;;;;5093953;28;20046;-78
2021/11/09 13:41:02;;;;;;;4.75;1.65;;;12.00;85.70;;;;;;5094113;28;20039;-78
2021/11/09 13:43:33;;;;;;;3.58;1.33;;;11.90;85.60;;;;;;5111867;28;20120;-78
2021/11/09 13:46:09;;;;;;;3.10;1.50;;;12.10;85.80;;;;;;5077660;28;20078;-77
2021/11/09 13:48:37;;;;;;;3.97;1.65;;;12.00;85.60;;;;;;5112063;28;20056;-78
2021/11/09 13:51:07;;;;;;;4.93;1.42;;;12.00;85.50;;;;;;5093177;28;20413;-77
2021/11/09 13:53:40;;;;;;;3.35;1.60;;;12.00;85.40;;;;;;5111533;28;20047;-77
2021/11/09 13:56:11;;;;;;;3.00;1.52;;;12.00;85.30;;;;;;5094816;28;20477;-79
2021/11/09 13:58:36;;;;;;;2.83;1.40;;;12.00;85.30;;;;;;5112401;28;20079;-78
2021/11/09 14:01:03;;;;;;;3.50;1.60;;;12.10;85.30;;;;;;5093841;28;20059;-79
2021/11/09 14:06:42;;;;;;;3.20;1.42;;;12.10;85.10;;;;;;5095686;28;20382;-78
2021/11/09 14:09:29;;;;;;;2.55;1.30;;;12.00;85.00;;;;;;5097949;28;20130;-80
2021/11/09 14:12:10;;;;;;;2.80;1.13;;;12.00;85.10;;;;;;5115743;28;20051;-79
2021/11/09 14:14:44;;;;;;;2.80;1.10;;;12.00;85.10;;;;;;5096874;28;20112;-80
2021/11/09 14:17:10;;;;;;;2.92;1.10;;;12.00;85.20;;;;;;5084824;28;20485;-79
2021/11/09 14:19:39;;;;;;;3.17;1.00;;;12.00;85.20;;;;;;5098895;28;20053;-80
2021/11/09 14:22:16;;;;;;;3.83;1.05;;;12.00;85.30;;;;;;5080201;28;20485;-81
2021/11/09 14:24:54;;;;;;;1.98;1.08;;;11.90;85.30;;;;;;5080092;28;20051;-78
2021/11/09 14:27:27;;;;;;;6.72;1.30;;;11.80;85.40;;;;;;5081448;28;20443;-79
2021/11/09 14:29:55;;;;;;;2.80;1.27;;;11.70;85.50;;;;;;5096878;28;20054;-81
2021/11/09 14:32:26;;;;;;;4.22;1.23;;;11.60;85.60;;;;;;5115085;28;20130;-79
2021/11/09 14:35:09;;;;;;;1.67;1.20;;;11.60;85.70;;;;;;5079988;28;20039;-81
2021/11/09 14:37:57;;;;;;;3.05;1.25;;;11.70;85.80;;;;;;5114789;28;20078;-81
2021/11/09 14:40:32;;;;;;;2.13;1.00;;;11.60;85.80;;;;;;5097752;28;20043;-79
2021/11/09 14:43:11;;;;;;;1.58;0.90;;;11.60;85.80;;;;;;5097178;28;20059;-77
2021/11/09 14:45:46;;;;;;;2.50;0.88;;;11.60;85.90;;;;;;5114575;28;20040;-79
2021/11/09 14:48:16;;;;;;;2.65;0.90;;;11.60;85.90;;;;;;5096474;28;20044;-80
2021/11/09 14:51:05;;;;;;;2.97;0.90;;;11.50;85.90;;;;;;5117565;28;20035;-79
2021/11/09 14:53:36;;;;;;;1.45;0.80;;;11.50;85.90;;;;;;5097140;28;20043;-79
2021/11/09 14:56:10;;;;;;;1.88;0.85;;;11.60;86.00;;;;;;5114489;28;20040;-78
2021/11/09 14:58:45;;;;;;;1.92;1.00;;;11.50;86.50;;;;;;5080458;28;20138;-79
2021/11/09 15:01:39;;;;;;;2.20;0.85;;;11.50;85.80;;;;;;5097588;28;20043;-80
2021/11/09 15:04:16;;;;;;;3.20;0.93;;;11.50;86.50;;;;;;5082243;28;20039;-80
2021/11/09 15:06:53;;;;;;;1.23;0.63;;;11.50;85.80;;;;;;5099396;28;20058;-79
2021/11/09 15:09:34;;;;;;;1.98;0.88;;;11.50;85.80;;;;;;5102109;28;20039;-79
2021/11/09 15:12:23;;;;;;;1.13;0.57;;;11.40;85.80;;;;;;5098995;28;20055;-81
2021/11/09 15:25:49;;;;;;;3.47;0.70;;;11.30;86.30;;;;;;5099080;28;20047;-79
2021/11/09 15:28:18;;;;;;;2.05;0.70;;;11.30;86.40;;;;;;5098701;28;20039;-79
2021/11/09 15:30:50;;;;;;;1.80;0.82;;;11.30;86.40;;;;;;5096776;28;20568;-79